sensor_id;sensor_type;location;lat;lon;timestamp;pressure;altitude;pressure_sealevel;temperature;humidity
23059;BME280;30585;51.502;7.218;2024-02-26T00:02:37;98934.03;;;5.07;75.19
23059;BME280;30585;51.502;7.218;2024-02-26T00:05:07;98925.16;;;5.06;75.45
23059;BME280;30585;51.502;7.218;2024-02-26T00:07:35;98932.09;;;5.09;74.64
23059;BME280;30585;51.502;7.218;2024-02-26T00:10:04;98936.81;;;5.05;75.10
23059;BME280;30585;51.502;7.218;2024-02-26T00:12:31;98935.63;;;5.09;74.46
23059;BME280;30585;51.502;7.218;2024-02-26T00:14:59;98926.75;;;5.09;74.70
23059;BME280;30585;51.502;7.218;2024-02-26T00:17:27;98927.94;;;5.05;75.03
23059;BME280;30585;51.502;7.218;2024-02-26T00:19:56;98930.50;;;5.06;74.92
23059;BME280;30585;51.502;7.218;2024-02-26T00:22:24;98924.91;;;5.09;74.82
23059;BME280;30585;51.502;7.218;2024-02-26T00:24:52;98925.53;;;5.13;74.36
23059;BME280;30585;51.502;7.218;2024-02-26T00:27:19;98928.34;;;5.11;74.44
23059;BME280;30585;51.502;7.218;2024-02-26T00:29:47;98925.44;;;5.14;74.18
23059;BME280;30585;51.502;7.218;2024-02-26T00:32:15;98921.28;;;5.10;74.85
23059;BME280;30585;51.502;7.218;2024-02-26T00:34:43;98926.84;;;5.07;74.89
23059;BME280;30585;51.502;7.218;2024-02-26T00:37:12;98929.31;;;5.10;75.19
23059;BME280;30585;51.502;7.218;2024-02-26T00:39:40;98928.44;;;5.10;74.74
23059;BME280;30585;51.502;7.218;2024-02-26T00:42:07;98937.66;;;5.06;75.01
23059;BME280;30585;51.502;7.218;2024-02-26T00:44:35;98902.97;;;4.82;75.75
23059;BME280;30585;51.502;7.218;2024-02-26T00:47:03;98933.28;;;5.05;75.46
23059;BME280;30585;51.502;7.218;2024-02-26T00:49:31;98927.81;;;5.06;75.35
23059;BME280;30585;51.502;7.218;2024-02-26T00:51:59;98926.84;;;5.07;75.35
23059;BME280;30585;51.502;7.218;2024-02-26T00:54:27;98905.94;;;4.90;75.72
23059;BME280;30585;51.502;7.218;2024-02-26T00:56:56;98930.84;;;5.02;75.84
23059;BME280;30585;51.502;7.218;2024-02-26T00:59:24;98935.13;;;5.04;75.36
23059;BME280;30585;51.502;7.218;2024-02-26T01:01:52;98938.63;;;5.05;75.17
23059;BME280;30585;51.502;7.218;2024-02-26T01:04:19;98943.25;;;5.03;75.72
23059;BME280;30585;51.502;7.218;2024-02-26T01:06:47;98938.88;;;5.02;75.81
23059;BME280;30585;51.502;7.218;2024-02-26T01:09:15;98926.59;;;4.99;75.91
23059;BME280;30585;51.502;7.218;2024-02-26T01:11:46;98921.97;;;5.01;75.60
23059;BME280;30585;51.502;7.218;2024-02-26T01:14:14;98911.50;;;4.98;75.86
23059;BME280;30585;51.502;7.218;2024-02-26T01:16:42;98912.47;;;4.97;75.97
23059;BME280;30585;51.502;7.218;2024-02-26T01:19:09;98909.56;;;5.00;76.04
23059;BME280;30585;51.502;7.218;2024-02-26T01:21:37;98915.03;;;4.99;75.73
23059;BME280;30585;51.502;7.218;2024-02-26T01:24:05;98920.88;;;4.93;75.86
23059;BME280;30585;51.502;7.218;2024-02-26T01:26:33;98928.78;;;4.94;75.86
23059;BME280;30585;51.502;7.218;2024-02-26T01:29:02;98926.84;;;4.96;76.35
23059;BME280;30585;51.502;7.218;2024-02-26T01:31:30;98923.66;;;4.91;75.79
23059;BME280;30585;51.502;7.218;2024-02-26T01:33:58;98935.72;;;4.97;76.49
23059;BME280;30585;51.502;7.218;2024-02-26T01:36:26;98937.53;;;4.96;76.38
23059;BME280;30585;51.502;7.218;2024-02-26T01:38:53;98929.34;;;4.87;76.34
23059;BME280;30585;51.502;7.218;2024-02-26T01:41:21;98934.25;;;4.93;76.34
23059;BME280;30585;51.502;7.218;2024-02-26T01:43:49;98939.94;;;4.88;76.76
23059;BME280;30585;51.502;7.218;2024-02-26T01:46:18;98938.75;;;4.92;76.06
23059;BME280;30585;51.502;7.218;2024-02-26T01:48:46;98933.75;;;4.88;76.34
23059;BME280;30585;51.502;7.218;2024-02-26T01:51:16;98933.13;;;4.84;76.79
23059;BME280;30585;51.502;7.218;2024-02-26T01:53:45;98935.16;;;4.80;76.98
23059;BME280;30585;51.502;7.218;2024-02-26T01:56:14;98936.88;;;4.81;76.44
23059;BME280;30585;51.502;7.218;2024-02-26T01:58:43;98932.16;;;4.85;76.24
23059;BME280;30585;51.502;7.218;2024-02-26T02:01:11;98928.75;;;4.83;76.63
23059;BME280;30585;51.502;7.218;2024-02-26T02:03:41;98927.53;;;4.87;76.56
23059;BME280;30585;51.502;7.218;2024-02-26T02:06:09;98930.94;;;4.89;76.22
23059;BME280;30585;51.502;7.218;2024-02-26T02:08:37;98924.00;;;4.87;76.07
23059;BME280;30585;51.502;7.218;2024-02-26T02:11:06;98915.03;;;4.88;76.07
23059;BME280;30585;51.502;7.218;2024-02-26T02:13:34;98923.56;;;4.93;75.73
23059;BME280;30585;51.502;7.218;2024-02-26T02:16:02;98923.19;;;4.97;75.64
23059;BME280;30585;51.502;7.218;2024-02-26T02:18:29;98935.84;;;4.95;75.19
23059;BME280;30585;51.502;7.218;2024-02-26T02:21:01;98934.13;;;4.94;75.21
23059;BME280;30585;51.502;7.218;2024-02-26T02:23:29;98930.59;;;4.94;75.09
23059;BME280;30585;51.502;7.218;2024-02-26T02:25:57;98936.81;;;4.94;75.80
23059;BME280;30585;51.502;7.218;2024-02-26T02:28:26;98931.69;;;4.91;76.02
23059;BME280;30585;51.502;7.218;2024-02-26T02:30:55;98930.38;;;4.97;75.16
23059;BME280;30585;51.502;7.218;2024-02-26T02:33:25;98907.22;;;4.73;75.52
23059;BME280;30585;51.502;7.218;2024-02-26T02:35:53;98931.09;;;4.99;75.47
23059;BME280;30585;51.502;7.218;2024-02-26T02:38:23;98939.09;;;4.99;75.37
23059;BME280;30585;51.502;7.218;2024-02-26T02:40:53;98947.22;;;4.97;75.16
23059;BME280;30585;51.502;7.218;2024-02-26T02:43:20;98948.09;;;4.98;75.57
23059;BME280;30585;51.502;7.218;2024-02-26T02:45:48;98948.47;;;4.93;75.10
23059;BME280;30585;51.502;7.218;2024-02-26T02:48:16;98957.56;;;4.91;75.69
23059;BME280;30585;51.502;7.218;2024-02-26T02:50:45;98949.91;;;4.97;75.38
23059;BME280;30585;51.502;7.218;2024-02-26T02:53:13;98949.69;;;5.00;75.43
23059;BME280;30585;51.502;7.218;2024-02-26T02:55:43;98944.44;;;4.99;75.61
23059;BME280;30585;51.502;7.218;2024-02-26T02:58:11;98948.09;;;4.98;75.13
23059;BME280;30585;51.502;7.218;2024-02-26T03:00:39;98949.78;;;4.99;75.48
23059;BME280;30585;51.502;7.218;2024-02-26T03:03:07;98948.94;;;4.98;75.05
23059;BME280;30585;51.502;7.218;2024-02-26T03:05:35;98948.72;;;5.01;75.47
23059;BME280;30585;51.502;7.218;2024-02-26T03:08:03;98944.56;;;4.97;75.64
23059;BME280;30585;51.502;7.218;2024-02-26T03:10:31;98952.72;;;4.96;75.73
23059;BME280;30585;51.502;7.218;2024-02-26T03:13:00;98959.41;;;5.01;75.30
23059;BME280;30585;51.502;7.218;2024-02-26T03:15:28;98961.72;;;4.95;75.32
23059;BME280;30585;51.502;7.218;2024-02-26T03:17:55;98967.53;;;5.00;75.47
23059;BME280;30585;51.502;7.218;2024-02-26T03:20:23;98968.16;;;5.03;75.30
23059;BME280;30585;51.502;7.218;2024-02-26T03:22:51;98931.19;;;4.86;75.59
23059;BME280;30585;51.502;7.218;2024-02-26T03:25:19;98882.72;;;4.56;75.26
23059;BME280;30585;51.502;7.218;2024-02-26T03:27:46;98976.91;;;5.05;75.22
23059;BME280;30585;51.502;7.218;2024-02-26T03:30:15;98890.38;;;4.49;75.29
23059;BME280;30585;51.502;7.218;2024-02-26T03:32:43;98980.44;;;5.06;75.43
23059;BME280;30585;51.502;7.218;2024-02-26T03:35:12;98970.84;;;5.03;75.56
23059;BME280;30585;51.502;7.218;2024-02-26T03:37:39;98980.69;;;5.03;75.80
23059;BME280;30585;51.502;7.218;2024-02-26T03:40:08;98978.13;;;5.01;76.90
23059;BME280;30585;51.502;7.218;2024-02-26T03:42:35;98974.97;;;4.96;77.15
23059;BME280;30585;51.502;7.218;2024-02-26T03:45:04;98972.53;;;4.93;77.41
23059;BME280;30585;51.502;7.218;2024-02-26T03:47:33;98972.41;;;4.95;78.16
23059;BME280;30585;51.502;7.218;2024-02-26T03:50:01;98961.31;;;4.88;79.01
23059;BME280;30585;51.502;7.218;2024-02-26T03:52:30;98966.91;;;4.85;78.55
23059;BME280;30585;51.502;7.218;2024-02-26T03:54:57;98954.72;;;4.81;79.84
23059;BME280;30585;51.502;7.218;2024-02-26T03:57:25;98954.09;;;4.77;79.58
23059;BME280;30585;51.502;7.218;2024-02-26T03:59:52;98965.00;;;4.74;80.32
23059;BME280;30585;51.502;7.218;2024-02-26T04:02:20;98963.06;;;4.76;81.12
23059;BME280;30585;51.502;7.218;2024-02-26T04:04:50;98959.66;;;4.74;81.78
23059;BME280;30585;51.502;7.218;2024-02-26T04:07:18;98962.94;;;4.67;81.62
23059;BME280;30585;51.502;7.218;2024-02-26T04:09:46;98963.06;;;4.65;81.97
23059;BME280;30585;51.502;7.218;2024-02-26T04:12:14;98955.25;;;4.62;81.84
23059;BME280;30585;51.502;7.218;2024-02-26T04:14:41;98949.06;;;4.62;81.96
23059;BME280;30585;51.502;7.218;2024-02-26T04:17:09;98940.06;;;4.52;82.04
23059;BME280;30585;51.502;7.218;2024-02-26T04:19:38;98935.38;;;4.42;83.16
23059;BME280;30585;51.502;7.218;2024-02-26T04:22:07;98945.78;;;4.34;83.61
23059;BME280;30585;51.502;7.218;2024-02-26T04:24:35;98945.53;;;4.37;83.68
23059;BME280;30585;51.502;7.218;2024-02-26T04:27:04;98932.16;;;4.26;83.89
23059;BME280;30585;51.502;7.218;2024-02-26T04:29:31;98951.75;;;4.38;84.22
23059;BME280;30585;51.502;7.218;2024-02-26T04:31:59;98932.75;;;4.30;85.04
23059;BME280;30585;51.502;7.218;2024-02-26T04:34:27;98952.81;;;4.35;84.69
23059;BME280;30585;51.502;7.218;2024-02-26T04:36:55;98953.16;;;4.31;84.95
23059;BME280;30585;51.502;7.218;2024-02-26T04:39:24;98950.16;;;4.35;84.72
23059;BME280;30585;51.502;7.218;2024-02-26T04:41:52;98947.81;;;4.31;84.60
23059;BME280;30585;51.502;7.218;2024-02-26T04:44:20;98958.25;;;4.34;84.68
23059;BME280;30585;51.502;7.218;2024-02-26T04:46:48;98964.25;;;4.37;84.49
23059;BME280;30585;51.502;7.218;2024-02-26T04:49:15;98969.06;;;4.32;84.42
23059;BME280;30585;51.502;7.218;2024-02-26T04:51:43;98963.13;;;4.29;84.63
23059;BME280;30585;51.502;7.218;2024-02-26T04:54:11;98975.09;;;4.23;85.60
23059;BME280;30585;51.502;7.218;2024-02-26T04:56:40;98976.59;;;4.27;85.82
23059;BME280;30585;51.502;7.218;2024-02-26T04:59:08;98980.81;;;4.30;85.96
23059;BME280;30585;51.502;7.218;2024-02-26T05:01:35;98983.25;;;4.33;85.48
23059;BME280;30585;51.502;7.218;2024-02-26T05:04:04;98977.28;;;4.29;85.08
23059;BME280;30585;51.502;7.218;2024-02-26T05:06:32;98981.81;;;4.29;85.26
23059;BME280;30585;51.502;7.218;2024-02-26T05:08:59;98981.56;;;4.32;85.04
23059;BME280;30585;51.502;7.218;2024-02-26T05:11:27;98997.47;;;4.33;85.69
23059;BME280;30585;51.502;7.218;2024-02-26T05:13:57;98989.69;;;4.30;85.83
23059;BME280;30585;51.502;7.218;2024-02-26T05:16:24;98988.72;;;4.31;85.98
23059;BME280;30585;51.502;7.218;2024-02-26T05:18:54;98998.91;;;4.26;86.50
23059;BME280;30585;51.502;7.218;2024-02-26T05:21:22;98997.94;;;4.27;86.42
23059;BME280;30585;51.502;7.218;2024-02-26T05:23:50;99009.13;;;4.32;86.09
23059;BME280;30585;51.502;7.218;2024-02-26T05:26:21;99008.16;;;4.33;85.92
23059;BME280;30585;51.502;7.218;2024-02-26T05:28:49;99014.13;;;4.37;86.32
23059;BME280;30585;51.502;7.218;2024-02-26T05:31:18;99011.41;;;4.26;87.33
23059;BME280;30585;51.502;7.218;2024-02-26T05:33:46;99026.84;;;4.33;86.32
23059;BME280;30585;51.502;7.218;2024-02-26T05:36:18;99014.34;;;4.34;86.63
23059;BME280;30585;51.502;7.218;2024-02-26T05:38:46;99022.56;;;4.31;86.82
23059;BME280;30585;51.502;7.218;2024-02-26T05:41:14;99017.97;;;4.33;86.58
23059;BME280;30585;51.502;7.218;2024-02-26T05:43:42;99028.78;;;4.31;87.13
23059;BME280;30585;51.502;7.218;2024-02-26T05:46:10;99016.38;;;4.30;87.04
23059;BME280;30585;51.502;7.218;2024-02-26T05:48:39;99028.03;;;4.29;86.88
23059;BME280;30585;51.502;7.218;2024-02-26T05:51:07;99028.03;;;4.29;87.51
23059;BME280;30585;51.502;7.218;2024-02-26T05:53:35;99023.53;;;4.30;87.09
23059;BME280;30585;51.502;7.218;2024-02-26T05:56:03;99022.69;;;4.29;86.77
23059;BME280;30585;51.502;7.218;2024-02-26T05:58:31;99038.00;;;4.27;87.09
23059;BME280;30585;51.502;7.218;2024-02-26T06:00:59;99035.31;;;4.27;87.14
23059;BME280;30585;51.502;7.218;2024-02-26T06:03:27;99042.47;;;4.27;87.30
23059;BME280;30585;51.502;7.218;2024-02-26T06:05:56;99041.09;;;4.21;88.05
23059;BME280;30585;51.502;7.218;2024-02-26T06:08:24;99041.31;;;4.18;87.75
23059;BME280;30585;51.502;7.218;2024-02-26T06:10:51;99035.13;;;4.18;87.96
23059;BME280;30585;51.502;7.218;2024-02-26T06:13:19;99029.47;;;4.09;87.76
23059;BME280;30585;51.502;7.218;2024-02-26T06:15:47;99032.03;;;4.11;87.48
23059;BME280;30585;51.502;7.218;2024-02-26T06:18:15;99048.25;;;4.21;87.83
23059;BME280;30585;51.502;7.218;2024-02-26T06:20:43;99054.13;;;4.26;87.53
23059;BME280;30585;51.502;7.218;2024-02-26T06:23:13;99055.63;;;4.17;87.28
23059;BME280;30585;51.502;7.218;2024-02-26T06:25:40;99055.63;;;4.17;88.35
23059;BME280;30585;51.502;7.218;2024-02-26T06:28:09;99053.06;;;4.16;87.64
23059;BME280;30585;51.502;7.218;2024-02-26T06:30:37;99060.84;;;4.19;87.19
23059;BME280;30585;51.502;7.218;2024-02-26T06:33:04;99053.69;;;4.19;87.59
23059;BME280;30585;51.502;7.218;2024-02-26T06:35:32;99062.56;;;4.20;87.85
23059;BME280;30585;51.502;7.218;2024-02-26T06:38:00;99070.16;;;4.26;87.89
23059;BME280;30585;51.502;7.218;2024-02-26T06:40:30;99065.88;;;4.23;88.06
23059;BME280;30585;51.502;7.218;2024-02-26T06:42:57;99063.31;;;4.22;88.92
23059;BME280;30585;51.502;7.218;2024-02-26T06:45:25;99066.84;;;4.22;88.57
23059;BME280;30585;51.502;7.218;2024-02-26T06:47:53;99050.72;;;4.11;88.15
23059;BME280;30585;51.502;7.218;2024-02-26T06:50:22;99069.41;;;4.24;88.88
23059;BME280;30585;51.502;7.218;2024-02-26T06:52:50;99068.00;;;4.18;89.12
23059;BME280;30585;51.502;7.218;2024-02-26T06:55:17;99062.66;;;4.18;88.65
23059;BME280;30585;51.502;7.218;2024-02-26T06:57:47;99066.94;;;4.21;88.33
23059;BME280;30585;51.502;7.218;2024-02-26T07:00:15;99063.53;;;4.19;87.80
23059;BME280;30585;51.502;7.218;2024-02-26T07:02:43;99075.69;;;4.23;88.34
23059;BME280;30585;51.502;7.218;2024-02-26T07:05:11;99064.59;;;4.29;88.61
23059;BME280;30585;51.502;7.218;2024-02-26T07:07:39;99071.84;;;4.27;87.39
23059;BME280;30585;51.502;7.218;2024-02-26T07:10:08;99073.56;;;4.28;88.09
23059;BME280;30585;51.502;7.218;2024-02-26T07:12:35;99078.75;;;4.29;87.97
23059;BME280;30585;51.502;7.218;2024-02-26T07:15:07;99084.09;;;4.29;87.61
23059;BME280;30585;51.502;7.218;2024-02-26T07:17:43;99093.59;;;4.33;87.84
23059;BME280;30585;51.502;7.218;2024-02-26T07:20:14;99090.09;;;4.33;87.25
23059;BME280;30585;51.502;7.218;2024-02-26T07:22:43;99099.16;;;4.30;88.68
23059;BME280;30585;51.502;7.218;2024-02-26T07:25:10;99093.09;;;4.28;88.52
23059;BME280;30585;51.502;7.218;2024-02-26T07:27:40;99064.41;;;4.06;87.56
23059;BME280;30585;51.502;7.218;2024-02-26T07:30:09;99104.41;;;4.32;88.92
23059;BME280;30585;51.502;7.218;2024-02-26T07:32:37;99105.69;;;4.39;88.96
23059;BME280;30585;51.502;7.218;2024-02-26T07:35:06;99111.75;;;4.41;88.41
23059;BME280;30585;51.502;7.218;2024-02-26T07:37:34;99107.16;;;4.43;88.08
23059;BME280;30585;51.502;7.218;2024-02-26T07:40:02;99104.50;;;4.43;87.73
23059;BME280;30585;51.502;7.218;2024-02-26T07:42:30;99110.69;;;4.43;87.94
23059;BME280;30585;51.502;7.218;2024-02-26T07:44:58;99093.81;;;4.30;89.04
23059;BME280;30585;51.502;7.218;2024-02-26T07:47:26;99112.63;;;4.41;88.49
23059;BME280;30585;51.502;7.218;2024-02-26T07:49:54;99117.00;;;4.42;88.49
23059;BME280;30585;51.502;7.218;2024-02-26T07:52:23;99105.25;;;4.45;88.24
23059;BME280;30585;51.502;7.218;2024-02-26T07:54:50;99126.19;;;4.51;88.67
23059;BME280;30585;51.502;7.218;2024-02-26T07:57:18;99124.13;;;4.55;87.95
23059;BME280;30585;51.502;7.218;2024-02-26T07:59:48;99128.97;;;4.50;88.59
23059;BME280;30585;51.502;7.218;2024-02-26T08:02:16;99131.63;;;4.50;89.17
23059;BME280;30585;51.502;7.218;2024-02-26T08:04:44;99141.00;;;4.55;88.32
23059;BME280;30585;51.502;7.218;2024-02-26T08:07:12;99131.38;;;4.53;88.75
23059;BME280;30585;51.502;7.218;2024-02-26T08:09:41;99129.34;;;4.56;88.27
23059;BME280;30585;51.502;7.218;2024-02-26T08:12:09;99140.69;;;4.60;88.53
23059;BME280;30585;51.502;7.218;2024-02-26T08:14:37;99144.22;;;4.60;88.34
23059;BME280;30585;51.502;7.218;2024-02-26T08:17:04;99141.44;;;4.62;88.67
23059;BME280;30585;51.502;7.218;2024-02-26T08:19:32;99142.50;;;4.59;87.93
23059;BME280;30585;51.502;7.218;2024-02-26T08:22:02;99157.88;;;4.68;88.40
23059;BME280;30585;51.502;7.218;2024-02-26T08:24:30;99147.63;;;4.62;88.78
23059;BME280;30585;51.502;7.218;2024-02-26T08:27:00;99153.50;;;4.67;88.68
23059;BME280;30585;51.502;7.218;2024-02-26T08:29:27;99158.00;;;4.67;89.25
23059;BME280;30585;51.502;7.218;2024-02-26T08:31:55;99158.75;;;4.69;88.77
23059;BME280;30585;51.502;7.218;2024-02-26T08:34:23;99155.09;;;4.70;88.51
23059;BME280;30585;51.502;7.218;2024-02-26T08:36:51;99154.34;;;4.68;89.08
23059;BME280;30585;51.502;7.218;2024-02-26T08:39:18;99156.44;;;4.75;88.80
23059;BME280;30585;51.502;7.218;2024-02-26T08:41:47;99159.66;;;4.80;89.03
23059;BME280;30585;51.502;7.218;2024-02-26T08:44:16;99163.06;;;4.82;88.31
23059;BME280;30585;51.502;7.218;2024-02-26T08:46:43;99150.56;;;4.83;88.67
23059;BME280;30585;51.502;7.218;2024-02-26T08:49:12;99152.28;;;4.84;88.30
23059;BME280;30585;51.502;7.218;2024-02-26T08:51:41;99145.22;;;4.83;88.75
23059;BME280;30585;51.502;7.218;2024-02-26T08:54:09;99160.50;;;4.81;88.73
23059;BME280;30585;51.502;7.218;2024-02-26T08:56:37;99161.25;;;4.83;88.54
23059;BME280;30585;51.502;7.218;2024-02-26T08:59:05;99160.19;;;4.86;88.64
23059;BME280;30585;51.502;7.218;2024-02-26T09:01:34;99168.72;;;4.91;88.69
23059;BME280;30585;51.502;7.218;2024-02-26T09:04:02;99169.06;;;4.86;88.53
23059;BME280;30585;51.502;7.218;2024-02-26T09:06:30;99166.81;;;4.93;88.54
23059;BME280;30585;51.502;7.218;2024-02-26T09:08:58;99161.22;;;4.96;88.58
23059;BME280;30585;51.502;7.218;2024-02-26T09:11:27;99172.41;;;5.01;88.61
23059;BME280;30585;51.502;7.218;2024-02-26T09:13:55;99167.19;;;4.99;88.20
23059;BME280;30585;51.502;7.218;2024-02-26T09:16:23;99185.78;;;5.01;87.87
23059;BME280;30585;51.502;7.218;2024-02-26T09:18:52;99182.38;;;4.99;88.13
23059;BME280;30585;51.502;7.218;2024-02-26T09:21:20;99191.25;;;4.99;88.27
23059;BME280;30585;51.502;7.218;2024-02-26T09:23:50;99202.34;;;5.06;88.24
23059;BME280;30585;51.502;7.218;2024-02-26T09:26:18;99198.84;;;5.05;88.25
23059;BME280;30585;51.502;7.218;2024-02-26T09:28:46;99201.63;;;5.04;88.07
23059;BME280;30585;51.502;7.218;2024-02-26T09:31:15;99199.47;;;5.09;88.54
23059;BME280;30585;51.502;7.218;2024-02-26T09:33:43;99204.81;;;5.09;88.52
23059;BME280;30585;51.502;7.218;2024-02-26T09:36:13;99199.13;;;5.13;88.58
23059;BME280;30585;51.502;7.218;2024-02-26T09:38:41;99217.63;;;5.17;87.87
23059;BME280;30585;51.502;7.218;2024-02-26T09:41:22;99195.88;;;5.21;87.85
23059;BME280;30585;51.502;7.218;2024-02-26T09:43:52;99207.09;;;5.26;87.59
23059;BME280;30585;51.502;7.218;2024-02-26T09:46:23;99207.69;;;5.19;87.97
23059;BME280;30585;51.502;7.218;2024-02-26T09:48:52;99208.66;;;5.18;87.75
23059;BME280;30585;51.502;7.218;2024-02-26T09:51:22;99210.22;;;5.20;87.65
23059;BME280;30585;51.502;7.218;2024-02-26T09:53:52;99218.13;;;5.22;87.89
23059;BME280;30585;51.502;7.218;2024-02-26T09:56:21;99212.44;;;5.26;87.84
23059;BME280;30585;51.502;7.218;2024-02-26T09:58:50;99209.66;;;5.28;88.20
23059;BME280;30585;51.502;7.218;2024-02-26T10:01:21;99217.34;;;5.32;87.27
23059;BME280;30585;51.502;7.218;2024-02-26T10:03:54;99213.50;;;5.36;87.06
23059;BME280;30585;51.502;7.218;2024-02-26T10:06:24;99064.97;;;4.48;88.29
23059;BME280;30585;51.502;7.218;2024-02-26T10:08:54;99223.50;;;5.45;87.66
23059;BME280;30585;51.502;7.218;2024-02-26T10:11:25;99220.72;;;5.47;87.67
23059;BME280;30585;51.502;7.218;2024-02-26T10:13:54;99225.94;;;5.48;88.50
23059;BME280;30585;51.502;7.218;2024-02-26T10:16:22;99214.13;;;5.40;88.13
23059;BME280;30585;51.502;7.218;2024-02-26T10:18:51;99230.88;;;5.55;88.25
23059;BME280;30585;51.502;7.218;2024-02-26T10:21:27;99227.22;;;5.56;88.40
23059;BME280;30585;51.502;7.218;2024-02-26T10:23:55;99240.47;;;5.57;88.53
23059;BME280;30585;51.502;7.218;2024-02-26T10:26:22;99234.56;;;5.65;88.46
23059;BME280;30585;51.502;7.218;2024-02-26T10:28:50;99237.09;;;5.66;88.80
23059;BME280;30585;51.502;7.218;2024-02-26T10:31:21;99232.69;;;5.78;88.18
23059;BME280;30585;51.502;7.218;2024-02-26T10:33:49;99242.19;;;5.82;87.86
23059;BME280;30585;51.502;7.218;2024-02-26T10:36:17;99246.06;;;5.78;87.47
23059;BME280;30585;51.502;7.218;2024-02-26T10:38:47;99268.97;;;5.82;87.70
23059;BME280;30585;51.502;7.218;2024-02-26T10:41:16;99281.78;;;5.90;87.65
23059;BME280;30585;51.502;7.218;2024-02-26T10:43:44;99290.03;;;5.87;87.32
23059;BME280;30585;51.502;7.218;2024-02-26T10:46:12;99293.50;;;5.76;89.17
23059;BME280;30585;51.502;7.218;2024-02-26T10:48:39;99298.94;;;5.87;89.30
23059;BME280;30585;51.502;7.218;2024-02-26T10:51:09;99293.00;;;5.95;88.03
23059;BME280;30585;51.502;7.218;2024-02-26T10:53:41;99290.09;;;5.98;88.48
23059;BME280;30585;51.502;7.218;2024-02-26T10:56:13;99287.31;;;5.99;87.27
23059;BME280;30585;51.502;7.218;2024-02-26T10:58:42;99272.72;;;6.03;88.02
23059;BME280;30585;51.502;7.218;2024-02-26T11:01:13;99287.31;;;5.99;87.96
23059;BME280;30585;51.502;7.218;2024-02-26T11:03:41;99294.56;;;6.10;87.08
23059;BME280;30585;51.502;7.218;2024-02-26T11:06:10;99295.63;;;6.07;87.57
23059;BME280;30585;51.502;7.218;2024-02-26T11:08:38;99298.06;;;6.10;87.58
23059;BME280;30585;51.502;7.218;2024-02-26T11:11:06;99298.13;;;6.22;88.05
23059;BME280;30585;51.502;7.218;2024-02-26T11:13:37;99299.81;;;6.23;87.08
23059;BME280;30585;51.502;7.218;2024-02-26T11:16:09;99300.69;;;6.23;87.47
23059;BME280;30585;51.502;7.218;2024-02-26T11:18:39;99301.09;;;6.30;87.52
23059;BME280;30585;51.502;7.218;2024-02-26T11:21:11;99304.50;;;6.32;87.09
23059;BME280;30585;51.502;7.218;2024-02-26T11:23:40;99303.91;;;6.39;88.17
23059;BME280;30585;51.502;7.218;2024-02-26T11:26:09;99310.00;;;6.41;86.32
23059;BME280;30585;51.502;7.218;2024-02-26T11:28:40;99312.69;;;6.41;86.15
23059;BME280;30585;51.502;7.218;2024-02-26T11:31:08;99319.22;;;6.37;85.40
23059;BME280;30585;51.502;7.218;2024-02-26T11:33:36;99313.53;;;6.42;86.26
23059;BME280;30585;51.502;7.218;2024-02-26T11:36:08;99324.28;;;6.53;85.46
23059;BME280;30585;51.502;7.218;2024-02-26T11:38:36;99321.25;;;6.58;85.70
23059;BME280;30585;51.502;7.218;2024-02-26T11:41:04;99249.63;;;6.13;84.51
23059;BME280;30585;51.502;7.218;2024-02-26T11:43:53;99310.16;;;6.62;84.81
23059;BME280;30585;51.502;7.218;2024-02-26T11:46:28;99313.34;;;6.78;84.61
23059;BME280;30585;51.502;7.218;2024-02-26T11:48:58;99307.91;;;6.91;85.11
23059;BME280;30585;51.502;7.218;2024-02-26T11:51:28;99323.50;;;6.86;83.82
23059;BME280;30585;51.502;7.218;2024-02-26T11:53:56;99324.72;;;7.04;84.38
23059;BME280;30585;51.502;7.218;2024-02-26T11:56:25;99324.00;;;7.13;83.89
23059;BME280;30585;51.502;7.218;2024-02-26T11:59:01;99300.97;;;7.00;83.79
23059;BME280;30585;51.502;7.218;2024-02-26T12:01:36;99326.81;;;7.12;83.52
23059;BME280;30585;51.502;7.218;2024-02-26T12:04:05;99327.19;;;7.07;83.41
23059;BME280;30585;51.502;7.218;2024-02-26T12:06:41;99325.97;;;7.11;82.97
23059;BME280;30585;51.502;7.218;2024-02-26T12:09:09;99314.13;;;7.03;82.73
23059;BME280;30585;51.502;7.218;2024-02-26T12:11:38;99324.88;;;7.14;82.81
23059;BME280;30585;51.502;7.218;2024-02-26T12:14:09;99331.31;;;7.11;83.49
23059;BME280;30585;51.502;7.218;2024-02-26T12:16:38;99330.72;;;7.08;82.58
23059;BME280;30585;51.502;7.218;2024-02-26T12:19:07;99331.06;;;6.92;82.22
23059;BME280;30585;51.502;7.218;2024-02-26T12:21:37;99332.78;;;6.93;83.52
23059;BME280;30585;51.502;7.218;2024-02-26T12:24:10;99328.38;;;6.92;83.43
23059;BME280;30585;51.502;7.218;2024-02-26T12:26:39;99329.22;;;6.81;82.13
23059;BME280;30585;51.502;7.218;2024-02-26T12:29:08;99323.13;;;6.79;83.37
23059;BME280;30585;51.502;7.218;2024-02-26T12:31:38;99338.22;;;6.80;81.95
23059;BME280;30585;51.502;7.218;2024-02-26T12:34:07;99332.41;;;6.86;82.87
23059;BME280;30585;51.502;7.218;2024-02-26T12:36:37;99339.00;;;6.94;83.01
23059;BME280;30585;51.502;7.218;2024-02-26T12:39:07;99342.06;;;7.00;82.42
23059;BME280;30585;51.502;7.218;2024-02-26T12:41:38;99337.56;;;7.12;83.93
23059;BME280;30585;51.502;7.218;2024-02-26T12:44:05;99312.28;;;7.03;82.87
23059;BME280;30585;51.502;7.218;2024-02-26T12:46:36;99347.81;;;7.18;81.64
23059;BME280;30585;51.502;7.218;2024-02-26T12:49:04;99346.56;;;7.11;81.86
23059;BME280;30585;51.502;7.218;2024-02-26T12:51:33;99357.66;;;6.95;81.54
23059;BME280;30585;51.502;7.218;2024-02-26T12:54:01;99343.84;;;6.77;81.76
23059;BME280;30585;51.502;7.218;2024-02-26T12:56:30;99365.81;;;6.94;82.74
23059;BME280;30585;51.502;7.218;2024-02-26T12:58:59;99379.13;;;6.95;81.39
23059;BME280;30585;51.502;7.218;2024-02-26T13:01:27;99382.75;;;6.94;81.13
23059;BME280;30585;51.502;7.218;2024-02-26T13:03:57;99370.72;;;7.00;81.57
23059;BME280;30585;51.502;7.218;2024-02-26T13:06:27;99380.59;;;7.10;81.25
23059;BME280;30585;51.502;7.218;2024-02-26T13:08:56;99378.28;;;7.17;81.21
23059;BME280;30585;51.502;7.218;2024-02-26T13:11:25;99375.22;;;6.99;80.31
23059;BME280;30585;51.502;7.218;2024-02-26T13:13:55;99386.19;;;6.96;80.51
23059;BME280;30585;51.502;7.218;2024-02-26T13:16:24;99384.19;;;6.87;81.23
23059;BME280;30585;51.502;7.218;2024-02-26T13:18:52;99395.94;;;6.97;80.53